This is the latest recevied weather packets stored in our database for station/object SV2RCS-13. If no packets are shown the sender has not sent any weather packets the latest 10 day(s).
| Time | Temp. | Humidity | Pressure | Rain* | Wind** | Luminosity | Snow |
|---|---|---|---|---|---|---|---|
| 1777452416 | 22.22° C | 37% | 1014.2 hPa | - | - | - | - |
| 1777451816 | 21.67° C | 37% | 1014.4 hPa | - | - | - | - |
| 1777451216 | 21.67° C | 37% | 1014.4 hPa | - | - | - | - |
| 1777450617 | 21.67° C | 38% | 1014.7 hPa | - | - | - | - |
| 1777450017 | 21.67° C | 38% | 1014.5 hPa | - | - | - | - |
| 1777449417 | 21.11° C | 39% | 1014.8 hPa | - | - | - | - |
| 1777448816 | 21.67° C | 39% | 1014.6 hPa | - | - | - | - |
| 1777448216 | 21.11° C | 38% | 1014.6 hPa | - | - | - | - |
| 1777447619 | 21.11° C | 38% | 1014.6 hPa | - | - | - | - |
| 1777447016 | 21.11° C | 37% | 1014.6 hPa | - | - | - | - |
| 1777446419 | 20.56° C | 38% | 1014.7 hPa | - | - | - | - |
| 1777445816 | 21.11° C | 37% | 1014.6 hPa | - | - | - | - |
| 1777445217 | 20.56° C | 38% | 1014.7 hPa | - | - | - | - |
| 1777444617 | 21.11° C | 37% | 1014.6 hPa | - | - | - | - |
| 1777444016 | 20.56° C | 37% | 1014.8 hPa | - | - | - | - |
| 1777443417 | 20.56° C | 38% | 1014.8 hPa | - | - | - | - |
| 1777442817 | 20° C | 40% | 1015 hPa | - | - | - | - |
| 1777442217 | 20° C | 39% | 1015 hPa | - | - | - | - |
| 1777441617 | 20° C | 38% | 1015.2 hPa | - | - | - | - |
| 1777441017 | 20.56° C | 29% | 1015.3 hPa | - | - | - | - |
| 1777440416 | 20° C | 34% | 1015.2 hPa | - | - | - | - |
| 1777439816 | 18.33° C | 40% | 1015.3 hPa | - | - | - | - |
| 1777439217 | 18.33° C | 40% | 1015.4 hPa | - | - | - | - |
| 1777438617 | 18.89° C | 36% | 1015.5 hPa | - | - | - | - |
| 1777438017 | 18.89° C | 37% | 1015.5 hPa | - | - | - | - |
* Rain since midnight (hover to see other rain measurements)
** Current wind speed in m/s (hover to see current wind gust speed)